Observations for AMENDOLA IT-AFB, Italy (LIBA)

LIBA 200655Z 30012KT 8000 -RA SCT025 BKN030 08/07 Q1022 RMK OVC VIS MIN 8000 WIND THR11 30012KT WIND THR29 /////KT BLU  
LIBA 200555Z 30012KT 5000 -RA BR SCT020 BKN025 08/07 Q1022 RMK OVC VIS MIN 5000 WIND THR11 30011KT WIND THR29 /////KT WHT   
LIBA 200505Z 30012KT 5000 DZ BR SCT020 BKN025 08/06 Q1022 RMK OVC VIS MIN 5000 WIND THR11 30010KT WIND THR29 /////KT WHT
LIBA 200455Z 30014KT 9999 SCT020 BKN030 08/06 Q1021 RMK OVC VIS MIN 9999 WIND THR11 29013KT WIND THR29 /////KT BLU  
LIBA 200355Z 28012KT 9999 SCT025 BKN030 08/06 Q1021 RMK OVC VIS MIN 9999 WIND THR11 29011KT WIND THR29 /////KT BLU  
LIBA 191755Z 29009KT 8000 -RA FEW015 SCT020 BKN025 10/08 Q1019 RMK OVC VIS MIN 8000 WIND THR11 29008KT WIND THR29 /////KT BLU   
LIBA 191655Z 29006KT 6000 -RA FEW015 SCT020 BKN025 10/08 Q1018 RMK OVC VIS MIN 6000 WIND THR11 29005KT WIND THR29 /////KT WHT   
LIBA 191633Z 29007KT 6000 -RA FEW015 SCT020 BKN025 10/09 Q1018 RMK OVC VIS MIN 6000 WIND THR11 29006KT WIND THR29 /////KT WHT
LIBA 191555Z 28006KT 4500 -RA BR FEW015 SCT020 BKN025 10/10 Q1017 RMK OVC VIS MIN 4500 WIND THR11 28006KT WIND THR29 /////KT GRN
LIBA 191455Z 17002KT 9999 FEW015 SCT020 BKN035 12/11 Q1017 RMK OVC VIS MIN 9999 WIND THR11 22004KT WIND THR29 /////KT BLU   
LIBA 191355Z 09005KT 9999 FEW015 SCT025 BKN040 13/10 Q1017 RMK OVC VIS MIN 9999 WIND THR11 11005KT WIND THR29 /////KT BLU   
LIBA 191255Z 11006KT 9999 FEW015 SCT030 BKN040 13/11 Q1017 RMK OVC VIS MIN 9999 WIND THR11 11006KT WIND THR29 /////KT BLU   
LIBA 191155Z 09006KT 9999 FEW015 SCT035 13/11 Q1017 RMK OVC BKN070 VIS MIN 9999 WIND THR11 13004KT WIND THR29 /////KT BLU   
LIBA 191055Z VRB03KT 9999 FEW025 SCT035 14/08 Q1017 RMK OVC BKN070 VIS MIN 9999 WIND THR11 VRB03KT WIND THR29 /////KT BLU   
LIBA 190955Z 29005KT 9999 FEW025 SCT035 13/09 Q1017 RMK BKN VIS MIN 9999 WIND THR11 30005KT WIND THR29 /////KT BLU  
LIBA 190855Z 28005KT 9999 SCT025 11/09 Q1017 RMK BKN SCT090 VIS MIN 9999 WIND THR11 28005KT WIND THR29 /////KT BLU  
LIBA 190755Z 30007KT 9999 FEW025 09/07 Q1016 RMK SCT SCT090 VIS MIN 9999 WIND THR11 29007KT WIND THR29 /////KT BLU  
LIBA 190655Z 29005KT 7000 FEW025 07/06 Q1016 RMK SCT SCT080 VIS MIN 7000 WIND THR11 29005KT WIND THR29 /////KT WHT